Time;durP1;ratioP1;P1;durP2;ratioP2;P2;SDS_P1;SDS_P2;PMS_P1;PMS_P2;Temp;Humidity;BMP_temperature;BMP_pressure;BME280_temperature;BME280_humidity;BME280_pressure;Samples;Min_cycle;Max_cycle;Signal;HPM_P1;HPM_P2
2022/11/23 00:01:24;;;;;;;19.88;8.27;;;;;;;;;;4995565;28;20034;-76
2022/11/23 00:03:54;;;;;;;26.55;8.65;;;;;;;;;;4995528;28;20026;-77
2022/11/23 00:06:21;;;;;;;13.85;6.65;;;;;;;;;;4977756;28;20053;-76
2022/11/23 00:08:47;;;;;;;18.63;7.57;;;;;;;;;;4977589;28;20125;-77
2022/11/23 00:11:13;;;;;;;20.58;7.65;;;;;;;;;;4977619;28;20454;-76
2022/11/23 00:13:39;;;;;;;19.98;9.07;;;;;;;;;;4995389;28;20033;-76
2022/11/23 00:16:19;;;;;;;20.13;8.07;;;;;;;;;;4977660;28;20117;-76
2022/11/23 00:18:44;;;;;;;15.52;7.78;;;;;;;;;;4995307;28;20085;-78
2022/11/23 00:21:20;;;;;;;21.95;8.10;;;;;;;;;;4995076;28;20026;-77
2022/11/23 00:23:46;;;;;;;18.90;8.13;;;;;;;;;;4995521;28;20029;-75
2022/11/23 00:26:13;;;;;;;20.98;8.43;;;;;;;;;;4994635;28;20133;-76
2022/11/23 00:28:39;;;;;;;19.42;8.65;;;;;;;;;;4995847;28;20029;-79
2022/11/23 00:31:06;;;;;;;17.10;8.40;;;;;;;;;;4995844;28;20060;-76
2022/11/23 00:33:31;;;;;;;18.08;8.02;;;;;;;;;;4978276;28;20089;-75
2022/11/23 00:36:11;;;;;;;16.48;8.00;;;;;;;;;;4994820;28;20479;-76
2022/11/23 00:38:36;;;;;;;15.32;6.90;;;;;;;;;;4994567;28;20031;-75
2022/11/23 00:41:13;;;;;;;19.20;7.63;;;;;;;;;;4994989;28;20030;-77
2022/11/23 00:43:39;;;;;;;16.48;7.72;;;;;;;;;;4995187;28;20411;-77
2022/11/23 00:46:05;;;;;;;14.95;7.38;;;;;;;;;;4977617;28;20080;-77
2022/11/23 00:48:31;;;;;;;20.98;8.20;;;;;;;;;;4995117;28;20134;-77
2022/11/23 00:50:56;;;;;;;17.05;7.72;;;;;;;;;;4977836;28;20043;-76
2022/11/23 00:53:21;;;;;;;18.13;8.05;;;;;;;;;;4978029;28;20030;-75
2022/11/23 00:55:51;;;;;;;14.75;7.55;;;;;;;;;;4994893;28;20026;-76
2022/11/23 00:58:16;;;;;;;15.18;7.03;;;;;;;;;;4995524;28;20050;-76
2022/11/23 01:00:42;;;;;;;18.42;7.70;;;;;;;;;;4994981;28;20033;-76
2022/11/23 01:03:07;;;;;;;18.52;7.85;;;;;;;;;;4995102;28;20471;-76
2022/11/23 01:05:36;;;;;;;21.85;8.52;;;;;;;;;;4994942;28;20023;-76
2022/11/23 01:08:02;;;;;;;19.10;8.15;;;;;;;;;;4977553;28;20029;-75
2022/11/23 01:10:29;;;;;;;19.10;8.27;;;;;;;;;;4995254;28;20026;-76
2022/11/23 01:12:54;;;;;;;17.70;7.80;;;;;;;;;;4995035;28;20109;-76
2022/11/23 01:15:19;;;;;;;21.58;8.15;;;;;;;;;;4994227;28;20022;-76
2022/11/23 01:17:44;;;;;;;18.20;7.85;;;;;;;;;;4994557;28;20535;-76
2022/11/23 01:20:10;;;;;;;18.60;7.43;;;;;;;;;;4994675;28;20161;-76
2022/11/23 01:22:35;;;;;;;19.83;8.68;;;;;;;;;;4995346;28;20028;-76
2022/11/23 01:25:00;;;;;;;18.08;7.55;;;;;;;;;;4994879;28;20093;-76
2022/11/23 01:27:26;;;;;;;19.10;7.65;;;;;;;;;;4995053;28;20105;-75
2022/11/23 01:29:51;;;;;;;18.92;7.88;;;;;;;;;;4994817;28;20038;-76
2022/11/23 01:32:16;;;;;;;17.63;8.10;;;;;;;;;;4993892;28;20460;-76
2022/11/23 01:34:41;;;;;;;19.88;7.72;;;;;;;;;;4994582;28;20022;-75
2022/11/23 01:37:07;;;;;;;17.25;7.60;;;;;;;;;;4994207;28;20027;-76
2022/11/23 01:39:32;;;;;;;16.65;8.23;;;;;;;;;;4993767;28;20508;-75
2022/11/23 01:41:57;;;;;;;21.48;8.48;;;;;;;;;;4994219;28;20037;-76
2022/11/23 01:44:31;;;;;;;18.45;8.45;;;;;;;;;;4994004;28;20027;-76
2022/11/23 01:47:02;;;;;;;24.15;8.57;;;;;;;;;;4976458;28;20398;-75
2022/11/23 01:49:32;;;;;;;24.60;8.38;;;;;;;;;;4993706;28;20113;-76
2022/11/23 01:52:04;;;;;;;15.45;7.10;;;;;;;;;;4976537;28;20033;-76
2022/11/23 01:54:43;;;;;;;17.25;8.77;;;;;;;;;;4976603;28;20092;-76
2022/11/23 01:57:13;;;;;;;18.58;8.32;;;;;;;;;;4976222;28;20041;-74
2022/11/23 01:59:39;;;;;;;18.80;7.93;;;;;;;;;;4993981;28;20030;-76
2022/11/23 02:02:05;;;;;;;18.90;8.35;;;;;;;;;;4976210;28;20025;-75
2022/11/23 02:04:34;;;;;;;21.10;8.60;;;;;;;;;;4976340;28;20081;-75
2022/11/23 02:07:01;;;;;;;19.90;8.02;;;;;;;;;;4993603;28;20062;-75
2022/11/23 02:09:30;;;;;;;23.52;8.73;;;;;;;;;;4993562;28;20019;-75
2022/11/23 02:11:56;;;;;;;18.48;7.53;;;;;;;;;;4993605;28;20387;-76
2022/11/23 02:14:21;;;;;;;20.05;8.63;;;;;;;;;;4993518;28;20034;-76
2022/11/23 02:16:46;;;;;;;20.48;8.65;;;;;;;;;;4976191;28;20122;-75
2022/11/23 02:19:32;;;;;;;18.05;7.68;;;;;;;;;;4993453;28;20026;-77
2022/11/23 02:21:57;;;;;;;19.48;7.68;;;;;;;;;;4993470;28;20031;-76
2022/11/23 02:24:30;;;;;;;18.15;8.05;;;;;;;;;;4993632;28;20029;-76
2022/11/23 02:26:56;;;;;;;19.08;7.90;;;;;;;;;;4976904;28;20032;-76
2022/11/23 02:29:24;;;;;;;17.10;8.02;;;;;;;;;;4993396;28;20387;-76
2022/11/23 02:31:49;;;;;;;18.10;7.93;;;;;;;;;;4975874;28;20026;-76
2022/11/23 02:34:18;;;;;;;19.88;8.30;;;;;;;;;;4993708;28;20468;-75
2022/11/23 02:36:46;;;;;;;19.13;8.55;;;;;;;;;;4993347;28;20026;-75
2022/11/23 02:39:26;;;;;;;21.90;8.65;;;;;;;;;;4993103;28;20027;-75
2022/11/23 02:41:52;;;;;;;22.05;8.63;;;;;;;;;;4993420;28;20022;-76
2022/11/23 02:44:31;;;;;;;16.83;8.23;;;;;;;;;;4993258;28;20391;-76
2022/11/23 02:46:57;;;;;;;22.80;8.85;;;;;;;;;;4975805;28;20553;-77
2022/11/23 02:49:22;;;;;;;21.42;8.90;;;;;;;;;;4994959;28;20121;-77
2022/11/23 02:51:48;;;;;;;20.63;8.05;;;;;;;;;;4996802;28;20050;-77
2022/11/23 02:54:13;;;;;;;20.33;9.18;;;;;;;;;;4997060;28;20026;-76
2022/11/23 02:56:38;;;;;;;19.75;8.25;;;;;;;;;;4996899;28;20026;-77
2022/11/23 02:59:03;;;;;;;18.55;7.90;;;;;;;;;;4979665;28;20022;-77
2022/11/23 03:01:29;;;;;;;20.10;8.75;;;;;;;;;;4996628;28;20063;-76
2022/11/23 03:03:54;;;;;;;20.08;8.60;;;;;;;;;;4996654;28;20027;-76
2022/11/23 03:06:19;;;;;;;17.83;8.55;;;;;;;;;;4978983;28;20029;-77
2022/11/23 03:08:44;;;;;;;19.30;7.78;;;;;;;;;;4996443;28;20084;-76
2022/11/23 03:11:10;;;;;;;20.85;8.60;;;;;;;;;;4979241;28;20029;-77
2022/11/23 03:13:35;;;;;;;20.13;8.68;;;;;;;;;;4996510;28;20541;-76
2022/11/23 03:16:00;;;;;;;18.65;8.52;;;;;;;;;;4996596;28;20026;-76
2022/11/23 03:18:25;;;;;;;17.00;7.78;;;;;;;;;;4996437;28;20552;-78
2022/11/23 03:20:51;;;;;;;20.20;8.48;;;;;;;;;;4979004;28;20026;-77
2022/11/23 03:23:16;;;;;;;21.65;8.73;;;;;;;;;;4979235;28;20369;-80
2022/11/23 03:25:42;;;;;;;15.82;7.75;;;;;;;;;;4996343;28;20030;-76
2022/11/23 03:28:07;;;;;;;17.63;8.02;;;;;;;;;;4978736;28;20500;-76
2022/11/23 03:30:33;;;;;;;18.05;8.32;;;;;;;;;;4978692;28;20108;-76
2022/11/23 03:32:58;;;;;;;17.55;8.20;;;;;;;;;;4996461;28;20387;-76
2022/11/23 03:35:23;;;;;;;19.73;8.30;;;;;;;;;;4978756;28;20014;-77
2022/11/23 03:37:48;;;;;;;16.02;7.93;;;;;;;;;;4995996;28;20026;-77
2022/11/23 03:40:14;;;;;;;18.70;8.40;;;;;;;;;;4995986;28;20518;-77
2022/11/23 03:42:40;;;;;;;23.08;9.23;;;;;;;;;;4995842;28;20076;-76
2022/11/23 03:45:07;;;;;;;18.60;8.20;;;;;;;;;;4995834;28;20030;-76
2022/11/23 03:47:32;;;;;;;20.55;8.23;;;;;;;;;;4978311;28;21366;-76
2022/11/23 03:49:57;;;;;;;18.60;8.52;;;;;;;;;;4995809;28;20157;-77
2022/11/23 03:52:23;;;;;;;18.25;7.97;;;;;;;;;;4995996;28;20510;-77
2022/11/23 03:54:48;;;;;;;20.48;8.68;;;;;;;;;;4996106;28;20033;-77
2022/11/23 03:57:13;;;;;;;18.27;8.20;;;;;;;;;;4995526;28;20479;-76
2022/11/23 03:59:39;;;;;;;19.90;8.27;;;;;;;;;;4977681;28;20109;-76
2022/11/23 04:02:06;;;;;;;22.30;8.85;;;;;;;;;;4994946;28;20462;-76
2022/11/23 04:04:31;;;;;;;18.70;8.40;;;;;;;;;;4977952;28;20030;-76
2022/11/23 04:06:57;;;;;;;24.77;8.52;;;;;;;;;;4995750;28;20030;-76
2022/11/23 04:09:22;;;;;;;18.83;7.65;;;;;;;;;;4995391;28;20045;-77
2022/11/23 04:11:47;;;;;;;21.55;8.45;;;;;;;;;;4995645;28;20022;-76
2022/11/23 04:14:13;;;;;;;19.30;8.45;;;;;;;;;;4995685;28;20105;-77
2022/11/23 04:16:38;;;;;;;18.45;7.88;;;;;;;;;;4995510;28;20061;-76
2022/11/23 04:19:03;;;;;;;20.27;8.02;;;;;;;;;;4995330;28;20076;-76
2022/11/23 04:21:28;;;;;;;17.98;7.93;;;;;;;;;;4995126;28;20480;-75
2022/11/23 04:23:54;;;;;;;19.95;7.38;;;;;;;;;;4976957;28;20037;-76
2022/11/23 04:26:19;;;;;;;18.80;8.30;;;;;;;;;;4995083;28;20161;-76
2022/11/23 04:28:44;;;;;;;19.67;8.18;;;;;;;;;;4995179;28;20498;-77
2022/11/23 04:31:10;;;;;;;17.08;7.20;;;;;;;;;;4995641;28;20495;-77
2022/11/23 04:33:35;;;;;;;16.60;7.60;;;;;;;;;;5002066;28;20025;-75
2022/11/23 04:36:00;;;;;;;23.85;8.38;;;;;;;;;;5013193;28;20065;-75
2022/11/23 04:38:25;;;;;;;19.40;8.07;;;;;;;;;;5012943;28;20053;-75
2022/11/23 04:40:51;;;;;;;22.17;8.57;;;;;;;;;;5013361;28;20038;-75
2022/11/23 04:43:16;;;;;;;19.65;8.90;;;;;;;;;;5012397;28;20093;-74
2022/11/23 04:45:41;;;;;;;18.58;7.90;;;;;;;;;;5012310;28;20049;-75
2022/11/23 04:48:07;;;;;;;16.98;7.30;;;;;;;;;;5012776;28;20033;-75
2022/11/23 04:50:34;;;;;;;15.60;7.63;;;;;;;;;;4993624;28;20022;-75
2022/11/23 04:53:00;;;;;;;17.60;7.47;;;;;;;;;;5011299;28;20028;-75
2022/11/23 04:55:25;;;;;;;14.02;7.03;;;;;;;;;;5013315;28;20023;-76
2022/11/23 04:57:50;;;;;;;16.00;7.63;;;;;;;;;;5013570;28;20034;-75
2022/11/23 05:00:16;;;;;;;14.60;7.07;;;;;;;;;;5012235;28;20026;-76
2022/11/23 05:02:41;;;;;;;20.48;8.18;;;;;;;;;;5012361;28;20026;-75
2022/11/23 05:05:07;;;;;;;18.77;8.50;;;;;;;;;;5010523;28;20027;-75
2022/11/23 05:07:32;;;;;;;18.25;8.15;;;;;;;;;;5011248;28;20587;-77
2022/11/23 05:09:57;;;;;;;18.85;8.45;;;;;;;;;;5011147;28;20041;-74
2022/11/23 05:12:22;;;;;;;20.00;7.95;;;;;;;;;;4993036;28;20050;-75
2022/11/23 05:14:48;;;;;;;17.45;7.82;;;;;;;;;;5012030;28;20013;-75
2022/11/23 05:17:13;;;;;;;19.50;7.88;;;;;;;;;;4994969;28;20022;-76
2022/11/23 05:19:38;;;;;;;17.73;7.70;;;;;;;;;;5012196;28;20056;-75
2022/11/23 05:22:04;;;;;;;18.73;8.13;;;;;;;;;;5012001;28;20026;-75
2022/11/23 05:24:29;;;;;;;24.02;8.35;;;;;;;;;;5007688;28;20026;-76
2022/11/23 05:26:54;;;;;;;21.55;8.98;;;;;;;;;;5002385;28;20066;-75
2022/11/23 05:29:20;;;;;;;21.00;8.45;;;;;;;;;;4994544;28;20030;-76
2022/11/23 05:31:45;;;;;;;21.38;9.52;;;;;;;;;;4994141;28;20068;-76
2022/11/23 05:34:10;;;;;;;21.75;8.77;;;;;;;;;;4993973;28;20032;-76
2022/11/23 05:36:35;;;;;;;23.55;8.75;;;;;;;;;;4994125;28;20022;-76
2022/11/23 05:39:01;;;;;;;19.88;8.07;;;;;;;;;;4993716;28;20058;-75
2022/11/23 05:41:26;;;;;;;20.65;9.02;;;;;;;;;;4993870;28;20109;-75
2022/11/23 05:43:51;;;;;;;23.10;9.77;;;;;;;;;;4994307;28;20026;-75
2022/11/23 05:46:17;;;;;;;21.13;9.82;;;;;;;;;;4994403;28;20121;-76
2022/11/23 05:48:43;;;;;;;20.58;9.32;;;;;;;;;;4993715;28;20034;-75
2022/11/23 05:51:08;;;;;;;22.52;9.10;;;;;;;;;;4976441;28;20399;-75
2022/11/23 05:53:33;;;;;;;24.10;10.05;;;;;;;;;;4994001;28;20030;-76
2022/11/23 05:56:00;;;;;;;20.60;9.93;;;;;;;;;;4976211;28;20472;-75
2022/11/23 05:58:25;;;;;;;22.10;9.57;;;;;;;;;;4976161;28;20028;-74
2022/11/23 06:00:51;;;;;;;20.15;9.27;;;;;;;;;;4993820;28;20113;-76
2022/11/23 06:03:16;;;;;;;19.92;8.82;;;;;;;;;;4993790;28;20018;-75
2022/11/23 06:05:41;;;;;;;24.98;10.05;;;;;;;;;;4993873;28;20459;-75
2022/11/23 06:08:06;;;;;;;23.95;9.98;;;;;;;;;;4993762;28;20118;-75
2022/11/23 06:10:32;;;;;;;20.67;8.90;;;;;;;;;;4993620;28;20081;-76
2022/11/23 06:13:02;;;;;;;24.25;9.65;;;;;;;;;;4993614;28;20403;-76
2022/11/23 06:15:27;;;;;;;20.85;8.95;;;;;;;;;;4976018;28;20026;-76
2022/11/23 06:17:53;;;;;;;22.70;10.00;;;;;;;;;;4993440;28;20030;-75
2022/11/23 06:20:18;;;;;;;21.42;9.70;;;;;;;;;;4976031;28;20069;-76
2022/11/23 06:22:43;;;;;;;21.15;9.73;;;;;;;;;;4993877;28;20109;-75
2022/11/23 06:25:09;;;;;;;21.70;8.77;;;;;;;;;;4979075;28;20035;-75
2022/11/23 06:27:34;;;;;;;24.92;9.60;;;;;;;;;;4997313;28;20031;-75
2022/11/23 06:29:59;;;;;;;20.02;8.82;;;;;;;;;;4997160;28;20080;-75
2022/11/23 06:32:24;;;;;;;21.45;9.40;;;;;;;;;;4997105;28;20027;-75
2022/11/23 06:34:50;;;;;;;19.85;9.15;;;;;;;;;;4997489;28;20531;-76
2022/11/23 06:37:15;;;;;;;22.73;9.82;;;;;;;;;;4979925;28;20053;-76
2022/11/23 06:39:40;;;;;;;20.27;9.73;;;;;;;;;;4979548;28;20479;-76
2022/11/23 06:42:26;;;;;;;23.40;9.65;;;;;;;;;;4998006;28;20026;-76
2022/11/23 06:44:51;;;;;;;20.52;9.43;;;;;;;;;;4997530;28;20101;-75
2022/11/23 06:47:17;;;;;;;22.25;10.00;;;;;;;;;;4980811;28;20480;-75
2022/11/23 06:49:42;;;;;;;24.42;10.20;;;;;;;;;;4979537;28;20069;-75
2022/11/23 06:52:07;;;;;;;23.48;10.10;;;;;;;;;;4997063;28;20058;-75
2022/11/23 06:54:33;;;;;;;24.25;9.85;;;;;;;;;;4996950;28;20479;-76
2022/11/23 06:56:58;;;;;;;21.48;9.48;;;;;;;;;;4979179;28;20513;-76
2022/11/23 06:59:23;;;;;;;20.15;9.95;;;;;;;;;;4996835;28;20022;-76
2022/11/23 07:01:49;;;;;;;23.35;10.35;;;;;;;;;;4996477;28;20076;-74
2022/11/23 07:04:15;;;;;;;22.80;8.82;;;;;;;;;;4979386;28;20030;-75
2022/11/23 07:06:40;;;;;;;22.70;9.73;;;;;;;;;;4979804;28;20023;-75
2022/11/23 07:09:06;;;;;;;19.30;8.93;;;;;;;;;;4996371;28;20030;-74
2022/11/23 07:11:31;;;;;;;21.80;9.18;;;;;;;;;;4996440;28;20130;-74
2022/11/23 07:13:56;;;;;;;20.95;9.02;;;;;;;;;;4979161;28;20022;-74
2022/11/23 07:16:22;;;;;;;19.58;8.82;;;;;;;;;;4996509;28;20161;-76
2022/11/23 07:18:47;;;;;;;18.25;8.80;;;;;;;;;;4996273;28;20025;-75
2022/11/23 07:21:12;;;;;;;22.45;9.43;;;;;;;;;;4978787;28;20034;-75
2022/11/23 07:23:40;;;;;;;22.75;9.30;;;;;;;;;;4996118;28;20109;-74
2022/11/23 07:26:09;;;;;;;21.02;8.60;;;;;;;;;;4996090;28;20097;-74
2022/11/23 07:28:34;;;;;;;18.42;8.95;;;;;;;;;;4996144;28;20073;-75
2022/11/23 07:30:59;;;;;;;18.67;8.63;;;;;;;;;;4978906;28;20026;-76
2022/11/23 07:33:24;;;;;;;21.98;9.93;;;;;;;;;;4995932;28;20054;-76
2022/11/23 07:35:50;;;;;;;22.25;9.88;;;;;;;;;;4995662;28;20052;-76
2022/11/23 07:38:15;;;;;;;22.17;10.13;;;;;;;;;;4995624;28;20565;-74
2022/11/23 07:40:40;;;;;;;24.70;11.10;;;;;;;;;;4995937;28;20034;-75
2022/11/23 07:43:06;;;;;;;26.45;10.52;;;;;;;;;;4996073;28;20058;-75
2022/11/23 07:45:33;;;;;;;23.92;9.60;;;;;;;;;;4996009;28;20034;-77
2022/11/23 07:48:03;;;;;;;26.67;10.00;;;;;;;;;;4995754;28;20022;-75
2022/11/23 07:50:29;;;;;;;20.33;9.73;;;;;;;;;;4995581;28;20096;-75
2022/11/23 07:52:55;;;;;;;23.77;9.82;;;;;;;;;;4995616;28;20479;-76
2022/11/23 07:55:20;;;;;;;18.90;9.43;;;;;;;;;;4995747;28;20022;-74
2022/11/23 07:57:46;;;;;;;18.83;8.48;;;;;;;;;;4995410;28;20034;-75
2022/11/23 08:00:11;;;;;;;24.17;9.02;;;;;;;;;;4995339;28;20041;-75
2022/11/23 08:02:37;;;;;;;18.27;8.13;;;;;;;;;;4995532;28;20031;-75
2022/11/23 08:05:03;;;;;;;18.15;8.52;;;;;;;;;;4977906;28;20098;-75
2022/11/23 08:07:34;;;;;;;18.10;8.38;;;;;;;;;;4995795;28;20039;-74
2022/11/23 08:09:59;;;;;;;21.17;8.93;;;;;;;;;;4995325;28;20034;-74
2022/11/23 08:12:24;;;;;;;19.48;9.30;;;;;;;;;;4995412;28;20118;-75
2022/11/23 08:14:49;;;;;;;21.40;9.02;;;;;;;;;;4995410;28;20074;-74
2022/11/23 08:17:15;;;;;;;22.50;9.20;;;;;;;;;;4994940;28;20471;-73
2022/11/23 08:19:40;;;;;;;20.25;8.57;;;;;;;;;;4995180;28;20045;-74
2022/11/23 08:22:08;;;;;;;22.38;9.32;;;;;;;;;;4995531;28;20034;-75
2022/11/23 08:24:33;;;;;;;17.95;8.85;;;;;;;;;;4994763;28;20019;-75
2022/11/23 08:26:59;;;;;;;18.02;8.70;;;;;;;;;;4994839;28;20022;-74
2022/11/23 08:29:24;;;;;;;21.60;9.48;;;;;;;;;;4994766;28;20533;-74
2022/11/23 08:31:50;;;;;;;17.77;8.40;;;;;;;;;;4994777;28;20053;-74
2022/11/23 08:34:17;;;;;;;21.65;8.50;;;;;;;;;;4994969;28;20022;-75
2022/11/23 08:36:43;;;;;;;21.63;9.23;;;;;;;;;;4977275;28;20033;-75
2022/11/23 08:39:09;;;;;;;18.65;8.15;;;;;;;;;;4994877;28;20030;-75
2022/11/23 08:41:38;;;;;;;20.98;8.57;;;;;;;;;;4994806;28;20034;-74
2022/11/23 08:44:04;;;;;;;18.30;8.20;;;;;;;;;;4995103;28;20121;-75
2022/11/23 08:46:29;;;;;;;18.70;8.60;;;;;;;;;;4977908;28;20165;-75
2022/11/23 08:48:54;;;;;;;18.80;8.48;;;;;;;;;;4995647;28;20066;-75
2022/11/23 08:51:21;;;;;;;18.13;8.60;;;;;;;;;;4995556;28;20030;-75
2022/11/23 08:53:46;;;;;;;19.65;7.88;;;;;;;;;;4995245;28;20038;-77
2022/11/23 08:56:12;;;;;;;19.38;8.38;;;;;;;;;;4994634;28;20485;-76
2022/11/23 08:58:37;;;;;;;17.27;8.32;;;;;;;;;;4994564;28;20073;-76
2022/11/23 09:01:08;;;;;;;22.77;8.55;;;;;;;;;;4976880;28;20049;-75
2022/11/23 09:03:33;;;;;;;17.70;8.35;;;;;;;;;;4994587;28;20454;-76
2022/11/23 09:05:59;;;;;;;20.52;8.25;;;;;;;;;;4994360;28;20106;-76
2022/11/23 09:08:24;;;;;;;19.85;8.23;;;;;;;;;;4994267;28;20026;-77
2022/11/23 09:10:50;;;;;;;20.38;7.82;;;;;;;;;;4994601;28;20022;-77
2022/11/23 09:13:15;;;;;;;19.75;8.15;;;;;;;;;;4976520;28;20026;-77
2022/11/23 09:15:40;;;;;;;20.73;8.20;;;;;;;;;;4977270;28;20018;-76
2022/11/23 09:18:05;;;;;;;20.35;8.40;;;;;;;;;;4994115;28;20468;-77
2022/11/23 09:20:31;;;;;;;21.67;8.45;;;;;;;;;;4994086;28;20038;-76
2022/11/23 09:22:56;;;;;;;18.67;8.68;;;;;;;;;;4994114;28;20026;-76
2022/11/23 09:25:22;;;;;;;17.75;7.70;;;;;;;;;;4960348;28;20429;-77
2022/11/23 09:27:48;;;;;;;16.95;7.70;;;;;;;;;;4993992;28;20028;-76
2022/11/23 09:30:21;;;;;;;17.95;8.13;;;;;;;;;;4993953;28;20034;-77
2022/11/23 09:32:46;;;;;;;19.75;7.78;;;;;;;;;;4994112;28;20033;-76
2022/11/23 09:35:12;;;;;;;18.67;7.70;;;;;;;;;;4993761;28;20039;-75
2022/11/23 09:37:37;;;;;;;18.40;8.52;;;;;;;;;;4993790;28;20455;-76
2022/11/23 09:40:03;;;;;;;17.20;8.07;;;;;;;;;;4993706;28;20398;-77
2022/11/23 09:42:53;;;;;;;16.95;7.80;;;;;;;;;;4993664;28;20037;-76
2022/11/23 09:45:53;;;;;;;17.80;7.68;;;;;;;;;;4976047;28;20030;-77
2022/11/23 09:48:40;;;;;;;19.33;8.23;;;;;;;;;;4917672;29;20042;-75
2022/11/23 09:51:15;;;;;;;14.75;7.55;;;;;;;;;;4989633;28;20042;-76
2022/11/23 09:53:49;;;;;;;24.67;9.80;;;;;;;;;;4993837;28;20041;-77
2022/11/23 09:56:33;;;;;;;20.13;8.05;;;;;;;;;;4976203;28;20049;-77
2022/11/23 09:59:01;;;;;;;;;;;;;;;;;;4996990;28;20117;-77
2022/11/23 10:01:26;;;;;;;17.08;7.15;;;;;;;;;;4980083;28;19993;-76
2022/11/23 10:03:52;;;;;;;16.00;6.90;;;;;;;;;;4997903;28;20547;-77
2022/11/23 10:06:30;;;;;;;17.92;6.82;;;;;;;;;;4997833;28;20030;-76
2022/11/23 10:09:13;;;;;;;21.60;7.65;;;;;;;;;;4997784;28;20080;-76
2022/11/23 10:12:05;;;;;;;17.73;7.95;;;;;;;;;;4997760;28;20026;-77
2022/11/23 10:15:00;;;;;;;14.63;6.72;;;;;;;;;;4981013;28;20407;-75
2022/11/23 10:17:53;;;;;;;17.00;7.20;;;;;;;;;;4997277;28;20022;-77
2022/11/23 10:20:49;;;;;;;14.32;6.32;;;;;;;;;;4997425;28;20023;-76
2022/11/23 10:23:38;;;;;;;14.10;6.65;;;;;;;;;;4979796;28;20030;-76
2022/11/23 10:26:08;;;;;;;13.27;6.70;;;;;;;;;;4979852;28;20081;-76
2022/11/23 10:28:33;;;;;;;16.98;7.13;;;;;;;;;;4997056;28;20114;-76
2022/11/23 10:31:14;;;;;;;14.60;7.32;;;;;;;;;;4997321;28;20057;-77
2022/11/23 10:34:02;;;;;;;13.55;6.18;;;;;;;;;;4997441;28;20030;-74
2022/11/23 10:36:27;;;;;;;13.43;6.97;;;;;;;;;;4997338;28;20026;-74
2022/11/23 10:38:57;;;;;;;15.45;6.82;;;;;;;;;;4997227;28;20476;-74
2022/11/23 10:41:23;;;;;;;16.08;7.03;;;;;;;;;;4979294;28;20058;-74
2022/11/23 10:44:00;;;;;;;15.60;7.70;;;;;;;;;;4997423;28;20493;-75
2022/11/23 10:46:35;;;;;;;19.42;7.32;;;;;;;;;;4997449;28;20113;-76
2022/11/23 10:49:17;;;;;;;15.98;6.82;;;;;;;;;;4997021;28;20068;-75
2022/11/23 10:51:57;;;;;;;19.35;7.47;;;;;;;;;;4997370;28;20030;-75
2022/11/23 10:54:45;;;;;;;15.45;6.72;;;;;;;;;;4996718;28;20032;-75
2022/11/23 10:57:35;;;;;;;15.30;7.15;;;;;;;;;;4997005;28;20484;-75
2022/11/23 11:00:03;;;;;;;15.05;6.25;;;;;;;;;;4980330;28;20027;-77
2022/11/23 11:02:37;;;;;;;17.17;7.07;;;;;;;;;;4997307;28;20026;-76
2022/11/23 11:05:37;;;;;;;19.02;6.38;;;;;;;;;;4996498;28;20565;-77
2022/11/23 11:08:13;;;;;;;21.15;6.68;;;;;;;;;;4996753;28;20046;-78
2022/11/23 11:10:41;;;;;;;14.88;7.07;;;;;;;;;;4997057;28;20101;-76
2022/11/23 11:13:29;;;;;;;24.00;7.05;;;;;;;;;;4997530;28;20029;-76
2022/11/23 11:16:01;;;;;;;17.38;6.90;;;;;;;;;;4996461;28;20558;-76
2022/11/23 11:18:31;;;;;;;15.73;6.78;;;;;;;;;;4996753;28;20049;-76
2022/11/23 11:21:18;;;;;;;20.40;7.00;;;;;;;;;;4996326;28;20026;-75
2022/11/23 11:23:55;;;;;;;14.15;6.50;;;;;;;;;;4996169;28;20061;-74
2022/11/23 11:26:25;;;;;;;20.73;7.10;;;;;;;;;;4995968;28;20023;-75
2022/11/23 11:28:52;;;;;;;18.40;6.88;;;;;;;;;;4978364;28;20022;-75
2022/11/23 11:31:35;;;;;;;18.30;6.30;;;;;;;;;;4978419;28;20105;-75
2022/11/23 11:34:10;;;;;;;13.15;5.45;;;;;;;;;;4978605;28;20057;-75
2022/11/23 11:36:42;;;;;;;12.70;5.63;;;;;;;;;;4996187;28;20022;-75
2022/11/23 11:39:17;;;;;;;13.80;5.95;;;;;;;;;;4995696;28;20041;-74
2022/11/23 11:41:44;;;;;;;14.32;5.70;;;;;;;;;;4978123;28;20046;-76
2022/11/23 11:44:19;;;;;;;17.30;6.35;;;;;;;;;;4995666;28;20026;-75
2022/11/23 11:46:52;;;;;;;16.45;6.28;;;;;;;;;;4995536;28;20099;-74
2022/11/23 11:49:23;;;;;;;15.90;6.28;;;;;;;;;;4978758;28;20029;-75
2022/11/23 11:51:55;;;;;;;14.80;6.30;;;;;;;;;;4996593;28;20018;-75
2022/11/23 11:54:29;;;;;;;13.10;5.85;;;;;;;;;;4996661;28;20038;-76
2022/11/23 11:57:02;;;;;;;13.07;5.72;;;;;;;;;;4996106;28;20105;-75
2022/11/23 11:59:57;;;;;;;15.95;6.03;;;;;;;;;;4997673;28;20057;-78
2022/11/23 12:02:42;;;;;;;11.90;5.88;;;;;;;;;;4995334;28;20092;-78
2022/11/23 12:05:27;;;;;;;13.25;6.05;;;;;;;;;;4995347;28;20051;-77
2022/11/23 12:08:17;;;;;;;16.63;6.20;;;;;;;;;;4996065;28;20043;-77
2022/11/23 12:10:54;;;;;;;10.93;5.05;;;;;;;;;;4996812;28;20037;-79
2022/11/23 12:13:28;;;;;;;14.68;5.82;;;;;;;;;;4979459;28;20165;-78
2022/11/23 12:16:01;;;;;;;;;;;;;;;;;;4997694;28;20033;-78
2022/11/23 12:18:39;;;;;;;16.50;6.68;;;;;;;;;;4996734;28;20386;-78
2022/11/23 12:21:23;;;;;;;19.33;6.28;;;;;;;;;;4996898;28;20407;-79
2022/11/23 12:24:10;;;;;;;15.77;6.40;;;;;;;;;;4980315;28;20023;-78
2022/11/23 12:27:05;;;;;;;18.98;7.35;;;;;;;;;;4979591;28;20126;-77
2022/11/23 12:30:04;;;;;;;17.13;6.38;;;;;;;;;;4996662;28;20472;-77
2022/11/23 12:32:59;;;;;;;11.32;5.38;;;;;;;;;;4978756;28;20030;-79
2022/11/23 12:35:37;;;;;;;13.15;5.80;;;;;;;;;;4997232;28;20061;-77
2022/11/23 12:38:09;;;;;;;15.82;5.88;;;;;;;;;;4979250;28;20026;-78
2022/11/23 12:40:41;;;;;;;12.93;5.95;;;;;;;;;;4996575;28;20475;-78
2022/11/23 12:43:22;;;;;;;18.20;6.40;;;;;;;;;;4978709;28;20475;-78
2022/11/23 12:46:03;;;;;;;17.25;6.85;;;;;;;;;;4996048;28;20125;-78
2022/11/23 12:48:58;;;;;;;20.58;7.78;;;;;;;;;;4997044;28;20030;-78
2022/11/23 12:51:35;;;;;;;16.83;7.25;;;;;;;;;;4959840;28;20065;-77
2022/11/23 12:54:20;;;;;;;18.63;6.95;;;;;;;;;;4996888;28;20034;-78
2022/11/23 12:56:57;;;;;;;15.40;7.93;;;;;;;;;;4997582;28;20034;-78
2022/11/23 12:59:25;;;;;;;13.90;6.70;;;;;;;;;;4999037;28;20026;-78
2022/11/23 13:01:58;;;;;;;18.95;7.70;;;;;;;;;;4999341;28;20026;-77
2022/11/23 13:04:41;;;;;;;19.33;8.10;;;;;;;;;;4997000;28;20022;-77
2022/11/23 13:07:19;;;;;;;19.30;8.70;;;;;;;;;;4979620;28;20407;-77
2022/11/23 13:10:09;;;;;;;16.83;7.60;;;;;;;;;;4996407;28;20371;-78
2022/11/23 13:12:48;;;;;;;18.75;8.15;;;;;;;;;;4995528;28;20061;-76
2022/11/23 13:15:16;;;;;;;21.63;7.78;;;;;;;;;;4995829;28;20054;-78
2022/11/23 13:17:52;;;;;;;23.13;9.45;;;;;;;;;;4994901;28;20030;-77
2022/11/23 13:20:28;;;;;;;19.92;8.68;;;;;;;;;;4995034;28;20041;-77
2022/11/23 13:22:56;;;;;;;18.98;8.98;;;;;;;;;;4977596;28;20030;-78
2022/11/23 13:25:27;;;;;;;22.88;9.23;;;;;;;;;;4995612;28;20479;-78
2022/11/23 13:28:01;;;;;;;20.58;9.73;;;;;;;;;;4995168;28;20475;-77
2022/11/23 13:30:32;;;;;;;25.05;9.63;;;;;;;;;;4978133;28;20058;-77
2022/11/23 13:33:22;;;;;;;20.02;9.32;;;;;;;;;;4996571;28;20541;-78
2022/11/23 13:35:52;;;;;;;18.90;8.52;;;;;;;;;;4996232;28;20545;-78
2022/11/23 13:38:25;;;;;;;23.17;9.57;;;;;;;;;;4996324;28;20080;-77
2022/11/23 13:40:51;;;;;;;21.88;9.40;;;;;;;;;;4996851;28;20053;-77
2022/11/23 13:43:25;;;;;;;20.73;8.43;;;;;;;;;;4997530;28;20472;-76
2022/11/23 13:46:22;;;;;;;25.90;9.07;;;;;;;;;;4995410;28;20031;-73
2022/11/23 13:48:52;;;;;;;23.98;8.90;;;;;;;;;;4976643;28;20117;-75
2022/11/23 13:51:32;;;;;;;23.25;8.38;;;;;;;;;;4993960;28;20026;-77
2022/11/23 13:54:01;;;;;;;20.92;8.85;;;;;;;;;;4994205;28;20080;-75
2022/11/23 13:56:42;;;;;;;20.95;8.82;;;;;;;;;;4977687;28;20491;-77
2022/11/23 13:59:23;;;;;;;21.42;8.73;;;;;;;;;;4997939;28;20026;-78
2022/11/23 14:02:06;;;;;;;23.02;9.23;;;;;;;;;;4999324;28;20499;-78
2022/11/23 14:04:37;;;;;;;24.23;9.32;;;;;;;;;;4995107;28;20492;-75
2022/11/23 14:07:14;;;;;;;21.02;9.85;;;;;;;;;;4993782;28;20026;-76
2022/11/23 14:09:56;;;;;;;27.02;9.60;;;;;;;;;;4993589;28;20030;-77
2022/11/23 14:12:28;;;;;;;27.35;9.52;;;;;;;;;;4994394;28;20076;-77
2022/11/23 14:15:02;;;;;;;20.52;8.85;;;;;;;;;;4993585;28;20603;-76
2022/11/23 14:18:03;;;;;;;23.80;10.27;;;;;;;;;;4993724;28;20030;-77
2022/11/23 14:20:48;;;;;;;24.50;8.68;;;;;;;;;;4993681;28;20491;-76
2022/11/23 14:23:32;;;;;;;;;;;;;;;;;;4980294;28;20030;-82
2022/11/23 14:26:15;;;;;;;17.40;8.23;;;;;;;;;;4996102;28;19928;-83
2022/11/23 14:29:22;;;;;;;22.17;8.73;;;;;;;;;;4997560;28;20077;-81
2022/11/23 14:32:09;;;;;;;21.23;8.30;;;;;;;;;;4979972;28;20026;-82
2022/11/23 14:35:00;;;;;;;22.98;9.23;;;;;;;;;;4997055;28;20077;-82
2022/11/23 14:37:54;;;;;;;20.08;9.23;;;;;;;;;;4979379;28;20022;-82
2022/11/23 14:40:31;;;;;;;21.60;8.77;;;;;;;;;;4978930;28;20030;-82
2022/11/23 14:42:58;;;;;;;23.50;10.27;;;;;;;;;;4996236;28;20479;-81
2022/11/23 14:45:28;;;;;;;23.90;9.98;;;;;;;;;;4998248;28;20034;-81
2022/11/23 14:47:54;;;;;;;22.15;9.18;;;;;;;;;;4998977;28;20101;-80
2022/11/23 14:50:28;;;;;;;20.00;8.75;;;;;;;;;;4999154;28;20046;-79